Pagrindinis puslapis
METAR-TAF:

METAR-TAF

Oro uostai :

Bergenas, Norvegija

platuma: 60-17N, ilguma: 005-14E, Aukštis: 5 m

Dabartinis oras

Ataskaita buvo paskelbta 31 minutes, ne 11:50 UTC
Vėjas 12 kt iš Pietų/Pietvakarių
Temperatūra 15°C
Drėgmė 82%
Slėgis 1013 hPa
Matomumas 10 km arba daugiau
Mažai debesys ne aukštis 1500 ft
Mažai debesys ne aukštis 2000 ft, Liūtiniai kamuoliniai debesys.
Išsisklaidę debesys ne aukštis 3200 ft
Su prošvaistėmis ne aukštis 5500 ft
Liūtis kaimynystėje

METAR: ENBR 221150Z 21012KT 9999 VCSH FEW015 FEW020CB SCT032 BKN055 15/12 Q1013 NOSIG RMK WIND 1200FT 21015KT

Laikas: 14:21 (12:21 UTC)

Prognozė

Prognozė galioja nuo 22 metu 12 UTC su 23 metu 12 UTC
Vėjas 10 kt iš Pietų/Pietvakarių
Matomumas 10 km arba daugiau
Išsisklaidę debesys ne aukštis 1200 ft
Su prošvaistėmis ne aukštis 2000 ft
Laikinai
nuo 22 metu 21 UTC su 23 metu 03 UTC
Su prošvaistėmis ne aukštis 1200 ft
Išsisklaidę debesys ne aukštis 1800 ft, Liūtiniai kamuoliniai debesys.
lietus

TAF: ENBR 2212/2312 21010KT 9999 SCT012 BKN020 TEMPO 2221/2303 SHRA BKN012 SCT018CB

Orai ataskaitas ir orų prognozės (METAR, TAF).

turimą stotys yra geltonos ir raudonos taškus žemėlapyje.

Perkelti pele per norėdami pamatyti stoties vardą.

Tada spustelėkite, norėdami matyti oro stebėjimo ir prognozės.

Norėdami pakeisti žemėlapį: spustelėkite ant žalios mygtukų su juodo kryžiaus žemyn,; žalią mygtuką su brūkšneliu, jei norite nutolinti; arba žalių rodyklių gretimoms žemėlapius.


METAR-TAF: